createdAt,value
2018-02-14T00:02:02.124Z,99.90
2018-02-14T00:04:30.344Z,99.90
2018-02-14T00:06:57.825Z,99.90
2018-02-14T00:09:25.415Z,99.90
2018-02-14T00:11:53.744Z,99.90
2018-02-14T00:14:21.208Z,99.90
2018-02-14T00:16:48.678Z,99.90
2018-02-14T00:19:16.155Z,99.90
2018-02-14T00:21:43.612Z,99.90
2018-02-14T00:24:11.845Z,99.90
2018-02-14T00:26:39.311Z,99.90
2018-02-14T00:29:06.904Z,99.90
2018-02-14T00:31:35.240Z,99.90
2018-02-14T00:34:02.700Z,99.90
2018-02-14T00:36:30.179Z,99.90
2018-02-14T00:38:57.621Z,99.90
2018-02-14T00:41:25.080Z,99.90
2018-02-14T00:43:52.540Z,99.90
2018-02-14T00:46:20.082Z,99.90
2018-02-14T00:48:47.545Z,99.90
2018-02-14T00:51:15.020Z,99.90
2018-02-14T00:53:42.567Z,99.90
2018-02-14T00:56:10.032Z,99.90
2018-02-14T00:58:37.502Z,99.90
2018-02-14T01:01:05.310Z,99.90
2018-02-14T01:03:32.756Z,99.90
2018-02-14T01:06:00.228Z,99.90
2018-02-14T01:08:27.688Z,99.90
2018-02-14T01:10:55.165Z,99.90
2018-02-14T01:13:22.643Z,99.90
2018-02-14T01:15:50.165Z,99.90
2018-02-14T01:18:17.637Z,99.90
2018-02-14T01:20:45.112Z,99.90
2018-02-14T01:23:12.579Z,99.90
2018-02-14T01:25:40.804Z,99.90
2018-02-14T01:28:08.278Z,99.90
2018-02-14T01:30:35.744Z,99.90
2018-02-14T01:33:03.212Z,99.90
2018-02-14T01:35:30.669Z,99.90
2018-02-14T01:37:58.262Z,99.90
2018-02-14T01:40:26.488Z,99.90
2018-02-14T01:42:53.992Z,99.90
2018-02-14T01:45:22.224Z,99.90
2018-02-14T01:47:49.704Z,99.90
2018-02-14T01:50:17.189Z,99.90
2018-02-14T01:52:45.481Z,99.90
2018-02-14T01:55:12.960Z,99.90
2018-02-14T01:57:40.432Z,99.90
2018-02-14T02:00:07.884Z,99.90
2018-02-14T02:02:35.490Z,99.90
2018-02-14T02:05:03.759Z,99.90
2018-02-14T02:07:32.020Z,99.90
2018-02-14T02:09:59.538Z,99.90
2018-02-14T02:12:26.983Z,99.90
2018-02-14T02:14:54.440Z,99.90
2018-02-14T02:17:22.560Z,99.90
2018-02-14T02:19:50.028Z,99.90
2018-02-14T02:22:18.256Z,99.90
2018-02-14T02:24:45.736Z,99.90
2018-02-14T02:27:13.193Z,99.90
2018-02-14T02:29:40.668Z,99.90
2018-02-14T02:32:08.133Z,99.90
2018-02-14T02:34:36.389Z,99.90
2018-02-14T02:37:03.848Z,99.90
2018-02-14T02:39:43.261Z,99.90
2018-02-14T02:42:11.229Z,99.90
2018-02-14T02:44:38.681Z,99.90
2018-02-14T02:47:06.153Z,99.90
2018-02-14T02:49:33.622Z,99.90
2018-02-14T02:52:01.097Z,99.90
2018-02-14T02:54:29.337Z,99.90
2018-02-14T02:56:56.799Z,99.90
2018-02-14T02:59:24.277Z,99.90
2018-02-14T03:01:51.749Z,99.90
2018-02-14T03:04:19.980Z,99.90
2018-02-14T03:06:47.568Z,99.90
2018-02-14T03:09:15.018Z,99.90
2018-02-14T03:11:42.485Z,99.90
2018-02-14T03:14:09.939Z,99.90
2018-02-14T03:16:37.416Z,99.90
2018-02-14T03:19:05.646Z,99.90
2018-02-14T03:21:33.239Z,99.90
2018-02-14T03:24:01.466Z,99.90
2018-02-14T03:26:28.932Z,99.90
2018-02-14T03:29:01.401Z,99.90
2018-02-14T03:31:28.868Z,99.90
2018-02-14T03:33:56.337Z,99.90
2018-02-14T03:36:23.809Z,99.90
2018-02-14T03:38:51.268Z,99.90
2018-02-14T03:41:19.525Z,99.90
2018-02-14T03:43:47.592Z,99.90
2018-02-14T03:46:15.156Z,99.90
2018-02-14T03:48:42.692Z,99.90
2018-02-14T03:51:10.162Z,99.90
2018-02-14T03:53:37.793Z,99.90
2018-02-14T03:56:05.261Z,99.90
2018-02-14T03:58:32.737Z,99.90
2018-02-14T04:01:00.197Z,99.90
2018-02-14T04:03:27.672Z,99.90
2018-02-14T04:05:55.133Z,99.90
2018-02-14T04:08:22.623Z,99.90
2018-02-14T04:10:50.081Z,99.90
2018-02-14T04:13:17.550Z,99.90
2018-02-14T04:15:45.026Z,99.90
2018-02-14T04:18:12.525Z,99.90
2018-02-14T04:20:40.765Z,99.90
2018-02-14T04:23:08.236Z,99.90
2018-02-14T04:25:35.697Z,99.90
2018-02-14T04:28:03.299Z,99.90
2018-02-14T04:30:30.984Z,99.90
2018-02-14T04:32:58.452Z,99.90
2018-02-14T04:35:25.978Z,99.90
2018-02-14T04:37:53.451Z,99.90
2018-02-14T04:40:20.932Z,99.90
2018-02-14T04:42:48.384Z,99.90
2018-02-14T04:45:15.867Z,99.90
2018-02-14T04:47:43.329Z,99.90
2018-02-14T04:50:10.791Z,99.90
2018-02-14T04:52:39.020Z,99.90
2018-02-14T04:55:06.600Z,99.90
2018-02-14T04:57:34.049Z,99.90
2018-02-14T05:00:01.538Z,99.90
2018-02-14T05:02:29.758Z,99.90
2018-02-14T05:04:57.224Z,99.90
2018-02-14T05:07:24.741Z,99.90
2018-02-14T05:09:52.987Z,99.90
2018-02-14T05:12:21.180Z,99.90
2018-02-14T05:14:49.561Z,99.90
2018-02-14T05:17:17.804Z,99.90
2018-02-14T05:19:45.433Z,99.90
2018-02-14T05:22:12.921Z,99.90
2018-02-14T05:24:40.400Z,99.90
2018-02-14T05:27:07.873Z,99.90
2018-02-14T05:29:36.201Z,99.90
2018-02-14T05:32:03.677Z,99.90
2018-02-14T05:34:31.199Z,99.90
2018-02-14T05:36:58.810Z,99.90
2018-02-14T05:39:26.468Z,99.90
2018-02-14T05:41:54.708Z,99.90
2018-02-14T05:44:22.298Z,99.90
2018-02-14T05:46:49.799Z,99.90
2018-02-14T05:49:17.270Z,99.90
2018-02-14T05:51:44.741Z,99.90
2018-02-14T05:54:12.221Z,99.90
2018-02-14T05:56:39.682Z,99.90
2018-02-14T05:59:07.149Z,99.90
2018-02-14T06:01:34.649Z,99.90
2018-02-14T06:04:02.124Z,99.90
2018-02-14T06:06:29.595Z,99.90
2018-02-14T06:08:57.080Z,99.90
2018-02-14T06:11:24.540Z,99.90
2018-02-14T06:13:52.059Z,99.90
2018-02-14T06:16:19.517Z,99.90
2018-02-14T06:18:47.001Z,99.90
2018-02-14T06:21:14.461Z,99.90
2018-02-14T06:23:42.109Z,99.90
2018-02-14T06:26:09.601Z,99.90
2018-02-14T06:28:37.840Z,99.90
2018-02-14T06:31:05.310Z,99.90
2018-02-14T06:33:32.803Z,99.90
2018-02-14T06:36:00.267Z,99.90
2018-02-14T06:38:27.821Z,99.90
2018-02-14T06:40:55.282Z,99.90
2018-02-14T06:43:22.957Z,99.90
2018-02-14T06:45:50.424Z,99.90
2018-02-14T06:48:17.888Z,99.90
2018-02-14T06:50:45.356Z,99.90
2018-02-14T06:53:12.898Z,99.90
2018-02-14T06:55:40.371Z,99.90
2018-02-14T06:58:07.833Z,99.90
2018-02-14T07:00:35.325Z,99.90
2018-02-14T07:03:03.574Z,99.90
2018-02-14T07:05:31.112Z,99.90
2018-02-14T07:07:58.603Z,99.90
2018-02-14T07:10:26.084Z,99.90
2018-02-14T07:12:53.605Z,99.90
2018-02-14T07:15:21.224Z,99.90
2018-02-14T07:17:48.698Z,99.90
2018-02-14T07:20:16.251Z,99.90
2018-02-14T07:22:43.739Z,99.90
2018-02-14T07:25:11.216Z,99.90
2018-02-14T07:27:39.546Z,99.90
2018-02-14T07:30:07.163Z,99.90
2018-02-14T07:32:35.404Z,99.90
2018-02-14T07:35:02.872Z,99.90
2018-02-14T07:37:31.865Z,99.90
2018-02-14T07:39:59.576Z,99.90
2018-02-14T07:42:27.075Z,99.90
2018-02-14T07:44:54.696Z,99.90
2018-02-14T07:47:22.396Z,96.30
2018-02-14T07:49:49.890Z,91.10
2018-02-14T07:52:18.118Z,82.90
2018-02-14T07:54:45.687Z,82.90
2018-02-14T07:57:13.151Z,82.50
2018-02-14T07:59:40.629Z,80.70
2018-02-14T08:02:08.857Z,73.50
2018-02-14T08:04:36.384Z,73.50
2018-02-14T08:07:03.897Z,76.30
2018-02-14T08:09:31.358Z,77.00
2018-02-14T08:11:58.827Z,79.40
2018-02-14T08:14:27.073Z,85.30
2018-02-14T08:16:54.573Z,85.00
2018-02-14T08:19:22.021Z,87.30
2018-02-14T08:21:49.517Z,90.80
2018-02-14T08:24:16.983Z,91.90
2018-02-14T08:26:44.444Z,92.60
2018-02-14T08:29:12.031Z,93.20
2018-02-14T08:31:39.492Z,91.60
2018-02-14T08:34:07.724Z,91.70
2018-02-14T08:36:35.181Z,91.70
2018-02-14T08:39:02.693Z,91.40
2018-02-14T08:41:30.164Z,93.00
2018-02-14T08:43:58.578Z,95.30
2018-02-14T08:46:26.773Z,95.30
2018-02-14T08:48:54.233Z,96.40
2018-02-14T08:51:21.700Z,95.70
2018-02-14T08:53:49.173Z,96.60
2018-02-14T08:56:17.417Z,96.50
2018-02-14T08:58:44.884Z,96.50
2018-02-14T09:01:12.357Z,96.50
2018-02-14T09:03:39.825Z,96.30
2018-02-14T09:06:08.077Z,97.00
2018-02-14T09:08:35.558Z,97.00
2018-02-14T09:11:03.873Z,97.30
2018-02-14T09:13:31.340Z,97.30
2018-02-14T09:15:58.810Z,97.50
2018-02-14T09:18:26.285Z,97.40
2018-02-14T09:20:53.736Z,97.50
2018-02-14T09:23:21.377Z,97.40
2018-02-14T09:25:48.949Z,97.60
2018-02-14T09:28:16.440Z,97.40
2018-02-14T09:30:44.749Z,97.10
2018-02-14T09:33:12.221Z,97.10
2018-02-14T09:35:39.704Z,97.10
2018-02-14T09:38:07.941Z,96.60
2018-02-14T09:40:35.424Z,96.60
2018-02-14T09:43:02.917Z,96.70
2018-02-14T09:45:30.572Z,96.10
2018-02-14T09:47:58.813Z,96.30
2018-02-14T09:50:26.296Z,96.10
2018-02-14T09:52:53.844Z,95.80
2018-02-14T09:55:21.324Z,95.50
2018-02-14T09:57:48.827Z,95.50
2018-02-14T10:00:16.344Z,95.60
2018-02-14T10:02:43.809Z,95.50
2018-02-14T10:05:12.048Z,94.50
2018-02-14T10:07:39.530Z,94.50
2018-02-14T10:10:07.757Z,94.20
2018-02-14T10:12:35.330Z,94.20
2018-02-14T10:15:02.801Z,94.20
2018-02-14T10:17:30.398Z,94.40
2018-02-14T10:19:58.743Z,93.60
2018-02-14T10:22:26.360Z,93.60
2018-02-14T10:24:53.882Z,93.80
2018-02-14T10:27:22.123Z,92.30
2018-02-14T10:29:49.588Z,92.30
2018-02-14T10:32:17.835Z,92.50
2018-02-14T10:34:45.305Z,92.50
2018-02-14T10:37:12.838Z,92.60
2018-02-14T10:39:40.445Z,92.00
2018-02-14T10:42:08.217Z,92.00
2018-02-14T10:44:35.728Z,92.80
2018-02-14T10:47:03.435Z,92.60
2018-02-14T10:49:30.959Z,91.80
2018-02-14T10:51:58.432Z,92.20
2018-02-14T10:54:25.933Z,91.90
2018-02-14T10:56:53.425Z,90.70
2018-02-14T10:59:20.909Z,91.20
2018-02-14T11:01:54.777Z,91.60
2018-02-14T11:04:22.294Z,91.30
2018-02-14T11:06:49.827Z,91.00
2018-02-14T11:09:17.393Z,89.70
2018-02-14T11:11:44.866Z,90.40
2018-02-14T11:14:13.099Z,90.00
2018-02-14T11:16:40.560Z,90.00
2018-02-14T11:19:08.033Z,88.10
2018-02-14T11:21:35.497Z,88.80
2018-02-14T11:24:02.968Z,87.70
2018-02-14T11:29:04.352Z,87.90
2018-02-14T11:31:32.596Z,86.40
2018-02-14T11:34:00.061Z,86.40
2018-02-14T11:36:27.714Z,85.50
2018-02-14T11:38:55.236Z,83.20
2018-02-14T11:41:22.728Z,83.40
2018-02-14T11:43:50.192Z,84.30
2018-02-14T11:46:17.676Z,82.10
2018-02-14T11:48:45.149Z,81.40
2018-02-14T11:51:12.621Z,81.30
2018-02-14T11:53:40.082Z,77.90
2018-02-14T11:56:07.694Z,77.10
2018-02-14T11:58:35.933Z,74.70
2018-02-14T12:01:03.505Z,74.60
2018-02-14T12:03:30.972Z,73.20
2018-02-14T12:05:58.440Z,74.40
2018-02-14T12:08:26.684Z,72.20
2018-02-14T12:10:54.164Z,72.10
2018-02-14T12:13:21.621Z,71.40
2018-02-14T12:15:49.181Z,71.80
2018-02-14T12:18:17.405Z,65.90
2018-02-14T12:20:44.865Z,65.80
2018-02-14T12:23:12.329Z,61.40
2018-02-14T12:25:39.791Z,58.70
2018-02-14T12:28:07.255Z,58.30
2018-02-14T12:30:34.714Z,56.90
2018-02-14T12:33:02.184Z,56.60
2018-02-14T12:35:29.646Z,55.60
2018-02-14T12:37:57.113Z,55.20
2018-02-14T12:40:25.393Z,52.50
2018-02-14T12:42:52.864Z,52.00
2018-02-14T12:45:21.094Z,53.50
2018-02-14T12:47:48.566Z,53.50
2018-02-14T12:50:16.021Z,52.30
2018-02-14T12:52:43.480Z,51.80
2018-02-14T12:55:10.957Z,48.60
2018-02-14T12:57:38.424Z,50.00
2018-02-14T13:00:06.765Z,48.80
2018-02-14T13:02:34.233Z,48.80
2018-02-14T13:05:01.780Z,50.70
2018-02-14T13:07:29.232Z,50.80
2018-02-14T13:09:56.705Z,50.30
2018-02-14T13:12:24.165Z,48.40
2018-02-14T13:14:51.638Z,47.20
2018-02-14T13:17:20.003Z,49.70
2018-02-14T13:19:47.517Z,49.70
2018-02-14T13:22:15.000Z,49.80
2018-02-14T13:24:42.474Z,49.40
2018-02-14T13:27:10.061Z,48.10
2018-02-14T13:29:37.543Z,48.10
2018-02-14T13:32:05.197Z,45.70
2018-02-14T13:34:32.658Z,45.50
2018-02-14T13:37:00.132Z,46.10
2018-02-14T13:39:27.593Z,46.50
2018-02-14T13:41:55.064Z,44.90
2018-02-14T13:44:22.539Z,45.40
2018-02-14T13:46:50.008Z,47.80
2018-02-14T13:49:18.253Z,50.80
2018-02-14T13:51:45.716Z,50.80
2018-02-14T13:54:13.182Z,50.90
2018-02-14T13:56:40.642Z,50.70
2018-02-14T13:59:08.889Z,49.40
2018-02-14T14:01:36.840Z,49.30
2018-02-14T14:04:04.307Z,46.20
2018-02-14T14:06:31.788Z,45.30
2018-02-14T14:08:59.244Z,47.50
2018-02-14T14:11:27.478Z,51.40
2018-02-14T14:13:54.956Z,51.50
2018-02-14T14:16:22.628Z,53.60
2018-02-14T14:18:50.090Z,53.00
2018-02-14T14:21:17.591Z,53.40
2018-02-14T14:23:45.811Z,55.20
2018-02-14T14:26:13.279Z,55.20
2018-02-14T14:28:40.741Z,53.30
2018-02-14T14:31:08.188Z,54.40
2018-02-14T14:33:35.665Z,54.90
2018-02-14T14:36:03.150Z,54.30
2018-02-14T14:38:30.617Z,55.30
2018-02-14T14:40:58.206Z,53.30
2018-02-14T14:43:25.683Z,54.50
2018-02-14T14:45:53.139Z,56.20
2018-02-14T14:48:20.613Z,53.40
2018-02-14T14:50:48.856Z,53.60
2018-02-14T14:53:16.328Z,53.60
2018-02-14T14:55:43.871Z,54.50
2018-02-14T14:58:11.340Z,51.60
2018-02-14T15:00:38.804Z,54.70
2018-02-14T15:03:06.329Z,56.30
2018-02-14T15:05:34.081Z,50.80
2018-02-14T15:08:01.548Z,50.20
2018-02-14T15:10:29.044Z,51.70
2018-02-14T15:12:56.521Z,52.60
2018-02-14T15:15:24.754Z,51.80
2018-02-14T15:17:52.212Z,51.80
2018-02-14T15:20:19.705Z,52.60
2018-02-14T15:22:48.168Z,53.50
2018-02-14T15:25:15.692Z,53.60
2018-02-14T15:27:43.440Z,53.80
2018-02-14T15:30:10.956Z,52.60
2018-02-14T15:32:38.496Z,53.40
2018-02-14T15:35:05.977Z,49.70
2018-02-14T15:37:33.435Z,49.90
2018-02-14T16:35:48.295Z,62.30
2018-02-14T16:38:17.139Z,62.90
2018-02-14T16:40:44.615Z,63.00
2018-02-14T16:43:12.121Z,63.50
2018-02-14T16:45:39.614Z,62.40
2018-02-14T16:48:07.086Z,63.70
2018-02-14T16:50:34.557Z,64.30
2018-02-14T16:53:02.017Z,64.70
2018-02-14T16:55:29.480Z,65.30
2018-02-14T16:57:57.716Z,66.30
2018-02-14T17:00:25.243Z,66.40
2018-02-14T17:02:52.695Z,67.60
2018-02-14T17:05:20.296Z,68.40
2018-02-14T17:07:47.764Z,68.70
2018-02-14T17:10:15.304Z,69.10
2018-02-14T17:12:42.789Z,70.00
2018-02-14T17:15:10.241Z,71.70
2018-02-14T17:17:37.717Z,73.10
2018-02-14T17:20:06.141Z,76.00
2018-02-14T17:22:33.669Z,76.00
2018-02-14T17:25:01.973Z,76.80
2018-02-14T17:27:29.459Z,76.80
2018-02-14T17:29:56.909Z,76.20
2018-02-14T17:32:24.376Z,76.50
2018-02-14T17:34:51.840Z,77.10
2018-02-14T17:37:19.320Z,78.00
2018-02-14T17:39:47.557Z,78.20
2018-02-14T17:42:15.020Z,78.10
2018-02-14T17:44:42.529Z,78.10
2018-02-14T17:47:10.746Z,78.90
2018-02-14T17:49:38.241Z,79.00
2018-02-14T17:52:06.489Z,80.10
2018-02-14T17:54:33.957Z,80.00
2018-02-14T17:57:02.043Z,80.60
2018-02-14T17:59:30.400Z,80.90
2018-02-14T18:01:57.981Z,80.90
2018-02-14T18:04:26.234Z,81.70
2018-02-14T18:06:53.697Z,81.70
2018-02-14T18:09:27.141Z,82.70
2018-02-14T18:11:54.613Z,82.60
2018-02-14T18:14:22.114Z,84.00
2018-02-14T18:16:49.565Z,84.30
2018-02-14T18:19:17.173Z,84.60
2018-02-14T18:21:44.634Z,85.20
2018-02-14T18:24:12.232Z,86.50
2018-02-14T18:26:40.482Z,87.00
2018-02-14T18:29:07.952Z,87.10
2018-02-14T18:31:35.443Z,86.90
2018-02-14T18:34:02.900Z,87.40
2018-02-14T18:36:31.140Z,87.20
2018-02-14T18:38:58.780Z,87.20
2018-02-14T18:41:26.261Z,88.00
2018-02-14T18:43:53.745Z,88.60
2018-02-14T18:46:21.209Z,87.70
2018-02-14T18:48:49.433Z,88.00
2018-02-14T18:51:16.906Z,88.00
2018-02-14T18:56:18.412Z,89.10
2018-02-14T18:58:46.649Z,90.10
2018-02-14T19:01:14.124Z,90.10
2018-02-14T19:03:41.607Z,90.20
2018-02-14T19:06:09.585Z,90.40
2018-02-14T19:08:37.815Z,90.60
2018-02-14T19:11:05.273Z,90.60
2018-02-14T19:13:32.766Z,90.80
2018-02-14T19:16:00.996Z,90.90
2018-02-14T19:18:28.470Z,90.90
2018-02-14T19:20:55.936Z,90.90
2018-02-14T19:23:23.409Z,91.20
2018-02-14T19:25:51.638Z,90.90
2018-02-14T19:28:19.113Z,90.90
2018-02-14T19:30:46.726Z,91.10
2018-02-14T19:33:14.221Z,90.90
2018-02-14T19:35:41.681Z,91.00
2018-02-14T19:38:09.133Z,91.20
2018-02-14T19:40:36.620Z,91.10
2018-02-14T19:43:04.968Z,91.10
2018-02-14T19:45:32.440Z,91.10
2018-02-14T19:47:59.918Z,91.20
2018-02-14T19:50:28.157Z,90.90
2018-02-14T19:52:55.633Z,90.90
2018-02-14T19:55:23.150Z,90.80
2018-02-14T19:57:51.349Z,90.90
2018-02-14T20:00:18.844Z,90.90
2018-02-14T20:02:47.162Z,91.20
2018-02-14T20:05:14.650Z,91.20
2018-02-14T20:07:42.114Z,91.30
2018-02-14T20:10:09.596Z,91.20
2018-02-14T20:12:37.937Z,91.30
2018-02-14T20:15:05.506Z,91.30
2018-02-14T20:17:32.977Z,91.50
2018-02-14T20:20:01.218Z,91.60
2018-02-14T20:22:28.694Z,91.60
2018-02-14T20:24:59.612Z,92.00
2018-02-14T20:27:27.770Z,92.10
2018-02-14T20:29:55.269Z,92.60
2018-02-14T20:32:22.804Z,92.70
2018-02-14T20:34:50.258Z,92.60
2018-02-14T20:37:17.885Z,92.60
2018-02-14T20:39:45.374Z,92.90
2018-02-14T20:42:12.900Z,93.00
2018-02-14T20:44:40.365Z,93.00
2018-02-14T20:47:07.840Z,93.20
2018-02-14T20:49:35.389Z,93.60
2018-02-14T20:54:36.679Z,93.40
2018-02-14T20:57:04.152Z,93.20
2018-02-14T21:27:37.149Z,94.30
2018-02-14T21:59:11.345Z,94.50
2018-02-14T22:01:38.823Z,94.70
2018-02-14T22:04:06.317Z,94.90
2018-02-14T22:06:33.971Z,94.70
2018-02-14T22:09:01.445Z,95.20
2018-02-14T22:11:29.701Z,95.00
2018-02-14T22:13:57.288Z,95.00
2018-02-14T22:16:25.588Z,95.00
2018-02-14T22:18:53.211Z,95.00
2018-02-14T22:21:21.519Z,94.80
2018-02-14T22:23:48.985Z,94.80
2018-02-14T22:26:16.562Z,94.80
2018-02-14T22:28:44.061Z,94.70
2018-02-14T22:31:11.521Z,94.90
2018-02-14T22:33:39.753Z,95.00
2018-02-14T22:36:07.291Z,95.00
2018-02-14T22:38:34.773Z,95.20
2018-02-14T22:41:02.246Z,95.10
2018-02-14T22:43:29.725Z,94.90
2018-02-14T22:45:57.960Z,95.30
2018-02-14T22:48:25.451Z,95.30
2018-02-14T22:50:52.906Z,95.20
2018-02-14T22:53:20.567Z,94.90
2018-02-14T22:55:48.040Z,95.10
2018-02-14T22:58:16.276Z,95.20
2018-02-14T23:00:44.378Z,95.20
2018-02-14T23:03:12.638Z,95.50
2018-02-14T23:05:40.101Z,95.50
2018-02-14T23:08:07.693Z,95.30
2018-02-14T23:10:35.181Z,95.70
2018-02-14T23:13:02.737Z,95.60
2018-02-14T23:15:30.226Z,95.70
2018-02-14T23:17:57.686Z,95.50
2018-02-14T23:20:25.161Z,95.70
2018-02-14T23:22:53.428Z,95.50
2018-02-14T23:25:21.664Z,95.60
2018-02-14T23:27:49.141Z,95.60
2018-02-14T23:30:16.608Z,95.60
2018-02-14T23:32:44.085Z,95.50
2018-02-14T23:35:12.341Z,95.70
2018-02-14T23:37:39.820Z,95.70
2018-02-14T23:40:08.053Z,95.80
2018-02-14T23:42:35.545Z,95.80
2018-02-14T23:45:04.518Z,95.90
2018-02-14T23:47:32.000Z,95.90
2018-02-14T23:50:00.249Z,96.00
2018-02-14T23:52:27.718Z,96.00
2018-02-14T23:54:55.953Z,96.10
2018-02-14T23:57:23.432Z,96.10
2018-02-14T23:59:50.914Z,96.20
